Time;durP1;ratioP1;P1;durP2;ratioP2;P2;SDS_P1;SDS_P2;PMS_P1;PMS_P2;Temp;Humidity;BMP_temperature;BMP_pressure;BME280_temperature;BME280_humidity;BME280_pressure;Samples;Min_cycle;Max_cycle;Signal;HPM_P1;HPM_P2
2021/03/30 00:01:41;;;;;;;18.83;8.43;;;;;;;11.56;52.62;103106.72;5073089;28;20036;-80
2021/03/30 00:04:08;;;;;;;11.77;7.18;;;;;;;11.45;53.19;103114.56;5073746;28;20495;-78
2021/03/30 00:06:35;;;;;;;17.25;6.70;;;;;;;11.48;53.24;103115.47;5073089;28;20028;-76
2021/03/30 00:09:08;;;;;;;12.60;7.13;;;;;;;11.51;52.80;103113.75;5070983;28;20395;-76
2021/03/30 00:11:35;;;;;;;11.27;6.47;;;;;;;11.49;52.82;103109.31;5067672;28;20043;-78
2021/03/30 00:14:01;;;;;;;12.88;6.95;;;;;;;11.49;52.51;103113.75;5070030;28;20087;-76
2021/03/30 00:16:28;;;;;;;11.98;7.47;;;;;;;11.43;53.01;103111.00;5073266;28;20698;-77
2021/03/30 00:18:54;;;;;;;10.82;6.30;;;;;;;11.37;52.62;103113.59;5072688;28;20044;-77
2021/03/30 00:21:21;;;;;;;14.07;7.00;;;;;;;11.32;52.70;103117.03;5072347;28;20028;-79
2021/03/30 00:23:48;;;;;;;11.65;7.15;;;;;;;11.28;52.80;103112.56;5073564;28;20032;-79
2021/03/30 00:26:14;;;;;;;12.40;7.60;;;;;;;11.25;52.59;103115.19;5073431;28;20035;-78
2021/03/30 00:28:41;;;;;;;17.38;7.65;;;;;;;11.20;52.94;103113.34;5073812;28;20017;-77
2021/03/30 00:31:07;;;;;;;12.15;7.53;;;;;;;11.17;52.82;103114.19;5071409;28;20039;-76
2021/03/30 00:33:34;;;;;;;14.38;7.10;;;;;;;11.14;52.94;103108.81;5071990;28;20584;-77
2021/03/30 00:36:01;;;;;;;12.93;6.85;;;;;;;11.10;52.88;103109.66;5071397;28;20025;-78
2021/03/30 00:38:27;;;;;;;10.40;6.65;;;;;;;11.05;53.00;103108.72;5071953;28;20051;-77
2021/03/30 00:40:54;;;;;;;12.10;7.15;;;;;;;11.03;53.08;103105.13;5071892;28;20353;-77
2021/03/30 00:43:20;;;;;;;9.52;6.78;;;;;;;11.02;52.83;103103.38;5072251;28;20024;-77
2021/03/30 00:45:47;;;;;;;8.27;6.15;;;;;;;11.00;52.84;103111.28;5071749;28;20032;-81
2021/03/30 00:48:23;;;;;;;12.13;6.18;;;;;;;11.06;52.80;103106.06;5071667;28;20035;-77
2021/03/30 00:50:50;;;;;;;10.45;7.25;;;;;;;10.97;52.85;103111.25;5069783;28;20390;-77
2021/03/30 00:53:16;;;;;;;12.95;6.75;;;;;;;10.92;53.18;103108.53;5072802;28;20020;-77
2021/03/30 00:55:43;;;;;;;14.65;7.03;;;;;;;10.92;52.97;103105.88;5071135;28;20025;-77
2021/03/30 00:58:10;;;;;;;13.73;7.68;;;;;;;10.89;53.06;103103.19;5074265;28;20035;-78
2021/03/30 01:00:37;;;;;;;11.32;7.43;;;;;;;10.92;52.98;103102.34;5075180;28;20115;-76
2021/03/30 01:03:03;;;;;;;15.98;7.88;;;;;;;10.94;52.73;103106.81;5075860;28;20027;-78
2021/03/30 01:05:30;;;;;;;14.18;6.60;;;;;;;10.93;52.78;103102.38;5075497;28;20025;-80
2021/03/30 01:08:22;;;;;;;10.15;6.32;;;;;;;10.96;52.83;103101.50;5076226;28;20075;-78
2021/03/30 01:13:43;;;;;;;10.07;7.18;;;;;;;10.89;52.76;103105.84;5082106;27;20919;-78
2021/03/30 01:16:15;;;;;;;12.93;7.90;;;;;;;10.80;53.12;103103.03;5066362;28;20032;-81
2021/03/30 01:18:52;;;;;;;13.70;7.93;;;;;;;10.77;53.27;103100.34;5062885;28;20480;-78
2021/03/30 01:21:58;;;;;;;12.73;7.88;;;;;;;10.77;53.15;103109.19;5051883;28;20055;-78
2021/03/30 01:24:38;;;;;;;12.50;8.13;;;;;;;10.67;53.28;103105.50;5054440;28;20055;-77
2021/03/30 01:27:18;;;;;;;11.68;8.00;;;;;;;10.61;53.47;103101.88;5052456;28;20075;-78
2021/03/30 01:29:54;;;;;;;14.55;8.15;;;;;;;10.62;53.47;103101.88;5054282;28;20021;-79
2021/03/30 01:32:36;;;;;;;15.75;7.82;;;;;;;10.59;53.49;103099.19;5058209;28;20111;-78
2021/03/30 01:35:09;;;;;;;17.58;8.35;;;;;;;10.49;53.63;103098.16;5056766;28;20017;-78
2021/03/30 01:37:41;;;;;;;13.05;8.48;;;;;;;10.46;53.67;103089.25;5058021;28;20052;-77
2021/03/30 01:40:11;;;;;;;13.90;8.23;;;;;;;10.40;53.64;103102.41;5057371;28;20071;-77
2021/03/30 01:42:43;;;;;;;12.27;7.97;;;;;;;10.31;53.83;103098.69;5057188;28;20049;-77
2021/03/30 01:45:11;;;;;;;10.40;7.53;;;;;;;10.28;53.92;103101.28;5056347;28;20025;-77
2021/03/30 01:47:39;;;;;;;12.75;7.50;;;;;;;10.24;54.31;103102.09;5056706;28;20136;-77
2021/03/30 01:50:07;;;;;;;16.05;8.80;;;;;;;10.18;54.66;103096.66;5056824;28;20027;-78
2021/03/30 01:52:35;;;;;;;15.65;8.10;;;;;;;10.15;54.45;103096.63;5056857;28;20044;-77
2021/03/30 01:55:03;;;;;;;11.65;7.70;;;;;;;10.11;54.50;103100.09;5058959;28;20030;-78
2021/03/30 01:57:31;;;;;;;13.52;8.68;;;;;;;10.05;54.84;103090.28;5053549;28;20124;-78
2021/03/30 02:00:00;;;;;;;17.35;7.57;;;;;;;10.03;54.83;103092.91;5055744;28;20530;-78
2021/03/30 02:02:27;;;;;;;14.95;8.40;;;;;;;9.99;55.22;103088.41;5051932;28;20476;-77
2021/03/30 02:04:55;;;;;;;12.95;7.20;;;;;;;9.96;54.77;103091.00;5056940;28;20034;-78
2021/03/30 02:07:24;;;;;;;10.40;8.40;;;;;;;9.92;54.98;103097.09;5056396;28;20099;-77
2021/03/30 02:09:56;;;;;;;12.18;8.27;;;;;;;9.88;55.36;103100.53;5059020;28;20469;-79
2021/03/30 02:12:29;;;;;;;12.45;8.25;;;;;;;9.88;55.08;103097.88;5056488;28;20111;-77
2021/03/30 02:14:56;;;;;;;13.80;8.57;;;;;;;9.82;55.43;103093.38;5056897;28;20055;-77
2021/03/30 02:25:35;;;;;;;14.70;7.63;;;;;;;9.68;56.20;103095.78;5109876;27;20382;-76
2021/03/30 02:28:07;;;;;;;17.27;8.50;;;;;;;9.69;56.11;103097.56;5100783;28;20031;-77
2021/03/30 02:30:36;;;;;;;13.23;8.10;;;;;;;9.66;56.26;103094.84;5100055;28;20354;-76
2021/03/30 02:33:06;;;;;;;14.70;9.30;;;;;;;9.63;56.64;103101.81;5099805;28;20103;-76
2021/03/30 02:35:34;;;;;;;16.45;8.52;;;;;;;9.60;56.83;103097.34;5099672;28;20479;-76
2021/03/30 02:38:03;;;;;;;16.92;8.73;;;;;;;9.62;56.88;103092.09;5100630;28;20356;-77
2021/03/30 02:40:30;;;;;;;12.80;9.45;;;;;;;9.58;56.56;103093.78;5098482;28;20021;-79
2021/03/30 02:42:59;;;;;;;13.05;8.13;;;;;;;9.59;56.58;103092.91;5099184;28;20052;-78
2021/03/30 02:45:29;;;;;;;16.20;10.32;;;;;;;9.59;57.18;103090.28;5097205;28;20032;-76
2021/03/30 02:48:05;;;;;;;16.05;7.93;;;;;;;9.65;57.10;103094.81;5100056;28;20452;-76
2021/03/30 02:50:33;;;;;;;14.43;9.48;;;;;;;9.58;56.88;103099.06;5097592;28;20431;-77
2021/03/30 02:53:03;;;;;;;15.43;9.50;;;;;;;9.58;56.99;103093.78;5099001;28;20037;-76
2021/03/30 02:55:31;;;;;;;14.88;9.18;;;;;;;9.55;56.72;103094.59;5099388;28;20015;-77
2021/03/30 02:57:58;;;;;;;16.13;9.90;;;;;;;9.53;57.15;103090.16;5100153;28;20025;-77
2021/03/30 03:00:25;;;;;;;12.75;8.05;;;;;;;9.53;57.08;103090.16;5098214;28;20028;-77
2021/03/30 03:02:59;;;;;;;16.98;10.38;;;;;;;9.54;56.72;103095.50;5099599;28;20035;-79
2021/03/30 03:05:39;;;;;;;18.70;9.15;;;;;;;9.54;56.93;103097.22;5099979;28;20089;-80
2021/03/30 03:08:20;;;;;;;16.80;8.63;;;;;;;9.53;57.11;103100.72;5098568;28;20024;-76
2021/03/30 03:10:47;;;;;;;17.60;9.43;;;;;;;9.48;57.06;103102.41;5097007;28;20039;-76
2021/03/30 03:13:15;;;;;;;14.95;9.45;;;;;;;9.45;57.05;103107.63;5100026;28;20111;-80
2021/03/30 03:15:44;;;;;;;11.98;8.30;;;;;;;9.44;57.60;103101.44;5096614;28;20032;-78
2021/03/30 03:18:12;;;;;;;17.00;10.63;;;;;;;9.41;57.92;103103.13;5099110;28;20069;-77
2021/03/30 03:20:39;;;;;;;17.98;9.82;;;;;;;9.39;57.93;103098.72;5096102;28;20025;-78
2021/03/30 03:23:07;;;;;;;17.40;10.07;;;;;;;9.41;57.92;103092.53;5097275;28;20429;-76
2021/03/30 03:25:34;;;;;;;20.75;10.30;;;;;;;9.44;57.06;103097.91;5099253;27;20471;-78
2021/03/30 03:28:02;;;;;;;16.90;9.73;;;;;;;9.46;57.61;103096.16;5100215;28;20069;-78
2021/03/30 03:30:29;;;;;;;13.82;9.48;;;;;;;9.44;57.24;103105.84;5098225;28;20033;-77
2021/03/30 03:33:06;;;;;;;15.07;9.45;;;;;;;9.52;57.11;103097.22;5098568;28;20024;-77
2021/03/30 03:35:33;;;;;;;22.48;11.27;;;;;;;9.46;56.73;103099.72;5091009;28;20042;-77
2021/03/30 03:38:01;;;;;;;18.65;10.18;;;;;;;9.48;56.63;103105.94;5086032;28;20487;-77
2021/03/30 03:40:28;;;;;;;18.70;11.80;;;;;;;9.49;56.77;103109.47;5083706;28;20441;-77
2021/03/30 03:42:55;;;;;;;17.38;10.57;;;;;;;9.50;56.47;103106.84;5085608;28;20588;-77
2021/03/30 03:45:22;;;;;;;18.95;10.73;;;;;;;9.47;57.08;103101.50;5085002;28;20036;-77
2021/03/30 03:47:48;;;;;;;20.75;10.93;;;;;;;9.41;57.17;103100.47;5084628;28;20029;-79
2021/03/30 03:50:15;;;;;;;20.25;10.35;;;;;;;9.46;56.83;103110.31;5084417;28;20033;-77
2021/03/30 03:52:44;;;;;;;25.27;11.82;;;;;;;9.48;57.30;103112.97;5086006;28;20074;-80
2021/03/30 03:55:13;;;;;;;23.58;11.45;;;;;;;9.47;57.47;103113.84;5085230;28;20123;-77
2021/03/30 03:57:51;;;;;;;24.75;11.98;;;;;;;9.56;56.89;103116.69;5084027;28;20040;-81
2021/03/30 04:00:20;;;;;;;17.25;10.82;;;;;;;9.58;57.17;103116.72;5078961;28;20108;-77
2021/03/30 04:03:08;;;;;;;19.80;10.75;;;;;;;9.59;56.60;103111.44;5082846;28;20032;-77
2021/03/30 04:05:47;;;;;;;21.67;11.18;;;;;;;9.64;56.43;103116.84;5084533;28;20051;-77
2021/03/30 04:08:15;;;;;;;18.35;10.73;;;;;;;9.62;56.95;103116.81;5083368;28;20023;-77
2021/03/30 04:10:46;;;;;;;19.15;10.52;;;;;;;9.60;56.84;103117.66;5085297;28;20112;-75
2021/03/30 04:13:15;;;;;;;19.75;11.23;;;;;;;9.58;56.59;103122.00;5085330;28;20412;-76
2021/03/30 04:15:42;;;;;;;20.02;11.30;;;;;;;9.62;56.84;103116.81;5082008;28;20025;-76
2021/03/30 04:18:09;;;;;;;24.80;12.63;;;;;;;9.63;56.60;103123.91;5084766;28;20020;-77
2021/03/30 04:20:35;;;;;;;19.45;11.00;;;;;;;9.66;56.50;103131.91;5084711;28;20031;-76
2021/03/30 04:23:02;;;;;;;17.27;10.65;;;;;;;9.68;56.18;103127.53;5083589;28;20530;-76
2021/03/30 04:25:28;;;;;;;21.15;10.48;;;;;;;9.68;56.25;103126.63;5084258;28;20039;-76
2021/03/30 04:27:55;;;;;;;17.27;10.80;;;;;;;9.69;56.31;103128.41;5085062;28;20031;-77
2021/03/30 04:30:24;;;;;;;21.65;12.75;;;;;;;9.68;56.64;103127.53;5082812;28;20031;-76
2021/03/30 04:32:51;;;;;;;19.15;11.55;;;;;;;9.66;56.73;103129.25;5084475;28;20356;-76
2021/03/30 04:35:17;;;;;;;17.85;11.00;;;;;;;9.68;56.73;103131.91;5085081;28;20050;-76
2021/03/30 04:37:43;;;;;;;20.05;12.77;;;;;;;9.68;56.55;103126.63;5082685;28;20025;-77
2021/03/30 04:40:12;;;;;;;27.20;11.20;;;;;;;9.77;56.75;103128.56;5083544;28;20075;-77
2021/03/30 04:42:39;;;;;;;18.15;11.27;;;;;;;9.77;56.23;103131.22;5084421;28;20047;-77
2021/03/30 04:45:07;;;;;;;17.95;11.30;;;;;;;9.83;56.48;103131.34;5083000;28;20024;-77
2021/03/30 04:47:34;;;;;;;18.40;10.75;;;;;;;9.81;56.82;103130.44;5081736;28;20390;-77
2021/03/30 04:50:00;;;;;;;22.13;12.05;;;;;;;9.84;56.84;103135.78;5083896;28;20482;-77
2021/03/30 04:52:26;;;;;;;21.58;11.50;;;;;;;9.87;56.80;103134.09;5083116;28;20498;-76
2021/03/30 04:54:52;;;;;;;21.73;11.63;;;;;;;9.90;56.31;103135.91;5082339;28;20036;-77
2021/03/30 04:57:19;;;;;;;16.95;10.82;;;;;;;9.97;56.23;103140.47;5084483;28;20166;-76
2021/03/30 04:59:45;;;;;;;17.73;11.20;;;;;;;10.02;55.78;103137.91;5081264;28;20028;-80
2021/03/30 05:02:11;;;;;;;19.00;11.07;;;;;;;10.02;56.33;103140.56;5082622;28;20028;-78
2021/03/30 05:04:37;;;;;;;17.75;11.40;;;;;;;10.04;55.94;103139.72;5083805;28;20039;-77
2021/03/30 05:07:03;;;;;;;27.23;11.98;;;;;;;10.07;56.25;103145.91;5082390;28;20063;-78
2021/03/30 05:09:30;;;;;;;19.85;11.45;;;;;;;10.10;55.93;103151.28;5082779;28;20852;-76
2021/03/30 05:11:57;;;;;;;17.08;10.50;;;;;;;10.11;56.02;103148.66;5084019;28;20078;-80
2021/03/30 05:14:23;;;;;;;18.80;11.35;;;;;;;10.11;56.03;103145.13;5078449;28;20071;-80
2021/03/30 05:16:49;;;;;;;22.40;11.68;;;;;;;10.11;56.04;103143.38;5076818;28;20060;-77
2021/03/30 05:19:16;;;;;;;20.42;12.15;;;;;;;10.16;55.75;103141.69;5078230;28;20028;-78
2021/03/30 05:21:42;;;;;;;21.77;12.63;;;;;;;10.19;55.51;103146.16;5079107;28;20112;-77
2021/03/30 05:24:08;;;;;;;21.13;11.77;;;;;;;10.24;55.60;103154.19;5081192;28;20027;-79
2021/03/30 05:26:35;;;;;;;21.48;13.18;;;;;;;10.24;55.72;103154.19;5083499;28;20166;-77
2021/03/30 05:29:01;;;;;;;20.25;11.65;;;;;;;10.25;55.84;103161.28;5077907;28;20085;-77
2021/03/30 05:31:27;;;;;;;20.35;12.43;;;;;;;10.27;55.82;103151.59;5076517;28;20028;-77
2021/03/30 05:33:54;;;;;;;27.55;12.82;;;;;;;10.29;55.51;103149.88;5076620;28;20028;-78
2021/03/30 05:36:20;;;;;;;19.85;11.70;;;;;;;10.32;55.55;103153.47;5073643;28;20036;-77
2021/03/30 05:38:46;;;;;;;23.42;11.88;;;;;;;10.32;55.46;103156.13;5074469;28;20032;-77
2021/03/30 05:41:13;;;;;;;24.73;12.40;;;;;;;10.34;55.58;103151.75;5071606;28;20020;-77
2021/03/30 05:43:40;;;;;;;22.35;11.70;;;;;;;10.34;55.48;103154.41;5054400;28;20063;-77
2021/03/30 05:46:07;;;;;;;21.40;11.70;;;;;;;10.29;55.45;103158.72;5084127;28;20052;-77
2021/03/30 05:48:33;;;;;;;20.63;11.73;;;;;;;10.27;55.37;103154.22;5072838;28;20390;-77
2021/03/30 05:51:00;;;;;;;16.92;11.35;;;;;;;10.24;55.59;103164.78;5078179;28;20035;-77
2021/03/30 05:53:27;;;;;;;23.00;11.88;;;;;;;10.20;55.64;103161.19;5082807;28;20194;-78
2021/03/30 05:55:59;;;;;;;22.27;12.82;;;;;;;10.22;55.97;103161.22;5077271;28;20055;-76
2021/03/30 05:58:34;;;;;;;18.90;10.52;;;;;;;10.16;55.83;103159.34;5073703;28;20032;-78
2021/03/30 06:01:04;;;;;;;20.27;11.52;;;;;;;10.14;55.88;103172.56;5078357;28;20032;-76
2021/03/30 06:03:32;;;;;;;20.52;12.52;;;;;;;10.09;56.34;103170.69;5081188;28;20039;-77
2021/03/30 06:06:02;;;;;;;19.20;12.85;;;;;;;10.07;56.34;103178.63;5081590;28;20074;-78
2021/03/30 06:08:30;;;;;;;20.67;11.15;;;;;;;10.09;56.48;103173.34;5067685;28;20170;-78
2021/03/30 06:10:59;;;;;;;20.30;12.32;;;;;;;10.08;56.51;103160.94;5079231;28;20446;-79
2021/03/30 06:16:32;;;;;;;21.83;11.50;;;;;;;10.12;56.37;103178.69;5142249;27;20357;-77
2021/03/30 06:19:04;;;;;;;27.10;14.27;;;;;;;10.16;56.80;103177.91;5126888;28;20020;-77
2021/03/30 06:21:31;;;;;;;19.53;13.17;;;;;;;10.13;56.78;103178.72;5117844;27;20027;-78
2021/03/30 06:23:59;;;;;;;19.63;12.05;;;;;;;10.15;56.76;103189.34;5121043;27;20285;-77
2021/03/30 06:26:27;;;;;;;19.58;12.65;;;;;;;10.17;56.92;103183.22;5115953;28;20034;-77
2021/03/30 06:28:54;;;;;;;22.40;12.48;;;;;;;10.23;56.65;103186.84;5117898;28;20058;-78
2021/03/30 06:31:20;;;;;;;22.60;12.63;;;;;;;10.27;56.82;103186.03;5117215;28;20030;-78
2021/03/30 06:33:53;;;;;;;19.42;11.27;;;;;;;10.36;56.48;103188.91;5119256;28;20429;-77
2021/03/30 06:36:23;;;;;;;26.10;13.00;;;;;;;10.36;56.59;103192.44;5121391;28;20122;-78
2021/03/30 06:44:30;;;;;;;23.45;12.82;;;;;;;10.59;56.36;103194.63;5108364;28;20039;-78
2021/03/30 06:49:37;;;;;;;27.60;12.70;;;;;;;10.71;56.16;103196.59;5056515;27;20415;-82
2021/03/30 06:52:21;;;;;;;21.33;14.05;;;;;;;10.87;55.84;103195.09;5049979;28;20029;-79
2021/03/30 06:55:08;;;;;;;30.02;14.65;;;;;;;10.94;56.10;103202.28;5050208;28;20029;-80
2021/03/30 07:00:28;;;;;;;24.60;14.90;;;;;;;11.11;55.69;103201.66;5069868;28;20452;-79
2021/03/30 07:02:58;;;;;;;22.98;14.48;;;;;;;11.08;55.98;103201.59;5071037;28;20045;-78
2021/03/30 07:08:09;;;;;;;25.50;14.55;;;;;;;11.24;55.88;103206.28;5109108;27;20711;-78
2021/03/30 07:10:41;;;;;;;26.33;14.77;;;;;;;11.38;55.85;103200.31;5089794;28;21375;-79
2021/03/30 07:13:08;;;;;;;28.88;15.55;;;;;;;11.46;55.66;103201.28;5088593;28;20031;-79
2021/03/30 07:15:35;;;;;;;26.27;14.82;;;;;;;11.58;55.49;103200.59;5089716;28;20028;-77
2021/03/30 07:20:43;;;;;;;23.20;14.50;;;;;;;11.81;55.66;103206.19;5110288;27;20374;-77
2021/03/30 07:23:12;;;;;;;24.48;15.23;;;;;;;11.88;55.55;103202.72;5109027;28;20035;-79
2021/03/30 07:25:48;;;;;;;25.35;16.80;;;;;;;11.94;56.38;103205.47;5106767;28;20016;-79
2021/03/30 07:28:21;;;;;;;28.13;17.52;;;;;;;12.13;55.69;103211.03;5108131;28;20035;-78
2021/03/30 07:30:53;;;;;;;32.95;18.80;;;;;;;12.20;56.23;103206.66;5089980;28;20020;-77
2021/03/30 07:33:44;;;;;;;29.85;18.88;;;;;;;12.40;55.54;103206.88;5090713;28;20028;-79
2021/03/30 07:36:11;;;;;;;30.13;18.17;;;;;;;12.35;56.23;103206.84;5089612;28;20147;-78
2021/03/30 07:38:43;;;;;;;30.65;20.13;;;;;;;12.44;55.69;103214.91;5090828;28;20028;-79
2021/03/30 07:41:10;;;;;;;38.22;20.42;;;;;;;12.49;56.22;103217.63;5089771;28;20029;-79
2021/03/30 07:43:37;;;;;;;38.28;20.45;;;;;;;12.61;56.38;103217.75;5088421;28;20028;-78
2021/03/30 07:46:04;;;;;;;34.53;18.40;;;;;;;12.67;56.44;103208.03;5089389;28;20056;-78
2021/03/30 07:48:32;;;;;;;31.52;19.08;;;;;;;12.85;55.80;103218.84;5089753;28;20036;-78
2021/03/30 07:59:46;;;;;;;36.55;21.48;;;;;;;13.34;56.19;103228.97;5057627;27;20422;-77
2021/03/30 08:02:17;;;;;;;36.70;20.02;;;;;;;13.50;55.95;103223.78;5060485;28;20475;-79
2021/03/30 08:05:06;;;;;;;40.13;20.83;;;;;;;13.67;55.70;103221.19;5060545;28;20384;-79
2021/03/30 08:07:53;;;;;;;33.28;19.55;;;;;;;13.76;54.83;103218.59;5063738;28;20020;-78
2021/03/30 08:10:23;;;;;;;36.03;20.35;;;;;;;13.83;55.07;103223.06;5058066;28;20751;-78
2021/03/30 08:12:49;;;;;;;36.17;20.65;;;;;;;13.94;54.60;103216.88;5058323;28;20033;-78
2021/03/30 08:15:43;;;;;;;39.00;20.30;;;;;;;14.12;54.00;103214.28;5059855;28;20499;-77
2021/03/30 08:18:11;;;;;;;34.83;19.83;;;;;;;14.16;54.01;103210.75;5054693;28;20112;-78
2021/03/30 08:26:39;;;;;;;36.33;20.30;;;;;;;14.54;53.85;103222.38;5081716;27;20553;-79
2021/03/30 08:31:53;;;;;;;38.53;20.75;;;;;;;14.75;53.89;103226.00;5059842;28;20835;-81
2021/03/30 08:34:24;;;;;;;33.67;19.13;;;;;;;14.95;54.02;103229.53;5055730;28;20056;-81
2021/03/30 08:36:55;;;;;;;42.03;20.42;;;;;;;15.14;53.65;103221.53;5058686;28;20467;-83
2021/03/30 08:44:56;;;;;;;37.28;21.55;;;;;;;15.25;53.15;103242.88;5084511;27;20419;-80
2021/03/30 08:47:29;;;;;;;36.55;20.42;;;;;;;15.75;51.81;103241.91;5091232;28;20108;-80
2021/03/30 08:50:28;;;;;;;31.25;19.45;;;;;;;15.96;51.01;103240.97;5081565;28;20024;-81
2021/03/30 08:52:56;;;;;;;32.08;18.05;;;;;;;16.03;51.08;103244.47;5078863;28;20063;-81
2021/03/30 08:55:28;;;;;;;29.30;16.67;;;;;;;16.17;50.47;103242.66;5079175;28;20116;-80
2021/03/30 08:57:57;;;;;;;34.05;17.50;;;;;;;16.23;50.04;103240.84;5080524;28;20021;-78
2021/03/30 09:00:24;;;;;;;29.20;17.15;;;;;;;16.38;49.78;103246.06;5084229;28;20043;-82
2021/03/30 09:05:42;;;;;;;39.40;20.35;;;;;;;16.68;49.95;103248.56;5084560;27;20388;-80
2021/03/30 09:08:11;;;;;;;35.17;19.00;;;;;;;16.75;49.87;103251.19;5067007;28;20118;-80
2021/03/30 09:10:37;;;;;;;40.53;19.75;;;;;;;16.89;50.24;103247.53;5047777;28;20079;-79
2021/03/30 09:13:18;;;;;;;36.38;19.85;;;;;;;17.11;49.17;103254.50;5047125;28;20441;-80
2021/03/30 09:15:46;;;;;;;34.28;17.73;;;;;;;17.22;49.16;103256.19;5048918;28;20036;-80
2021/03/30 09:18:25;;;;;;;32.22;19.10;;;;;;;17.36;48.83;103256.03;5048424;28;20036;-84
2021/03/30 09:21:15;;;;;;;37.55;20.95;;;;;;;17.50;48.30;103248.75;5047937;28;20033;-83
2021/03/30 09:23:42;;;;;;;31.65;18.50;;;;;;;17.45;48.85;103250.59;5046197;28;20120;-82
2021/03/30 09:26:13;;;;;;;37.55;20.60;;;;;;;17.63;48.87;103247.72;5046693;28;20510;-80
2021/03/30 09:28:42;;;;;;;35.63;22.20;;;;;;;17.66;48.99;103248.56;5049422;28;20025;-78
2021/03/30 09:31:10;;;;;;;33.20;19.85;;;;;;;17.77;49.04;103252.94;5046766;28;20539;-82
2021/03/30 09:33:36;;;;;;;37.45;20.63;;;;;;;17.86;49.14;103259.09;5048912;28;20029;-80
2021/03/30 09:36:09;;;;;;;36.88;20.48;;;;;;;18.04;48.79;103253.50;5047970;28;20025;-81
2021/03/30 09:38:57;;;;;;;41.60;19.67;;;;;;;18.31;49.17;103250.50;5047384;28;20025;-84
2021/03/30 09:41:43;;;;;;;36.70;20.17;;;;;;;18.51;47.74;103252.88;5048960;28;20028;-82
2021/03/30 09:44:10;;;;;;;32.28;19.45;;;;;;;18.55;47.96;103251.91;5049053;28;20111;-80
2021/03/30 09:46:37;;;;;;;34.17;19.80;;;;;;;18.69;47.84;103249.91;5048863;28;20036;-82
2021/03/30 09:49:08;;;;;;;32.75;18.90;;;;;;;18.71;46.76;103253.44;5048865;28;20029;-81
2021/03/30 09:51:38;;;;;;;30.95;18.45;;;;;;;18.88;46.26;103236.19;5048600;28;20112;-80
2021/03/30 09:54:28;;;;;;;34.17;19.85;;;;;;;19.07;46.38;103239.47;5048705;28;20040;-81
2021/03/30 09:56:56;;;;;;;35.58;19.98;;;;;;;19.11;45.98;103240.31;5045802;28;20112;-81
2021/03/30 09:59:23;;;;;;;30.38;18.55;;;;;;;19.23;45.66;103229.34;5048862;28;20052;-83
2021/03/30 10:01:51;;;;;;;27.25;17.02;;;;;;;19.32;44.99;103228.28;5046856;28;20061;-83
2021/03/30 10:04:17;;;;;;;33.90;18.67;;;;;;;19.46;44.52;103225.31;5048176;28;20362;-82
2021/03/30 10:06:43;;;;;;;32.42;17.52;;;;;;;19.54;43.34;103226.06;5048009;28;20037;-88
2021/03/30 10:09:10;;;;;;;31.17;16.40;;;;;;;19.70;43.05;103226.63;5046806;28;20060;-83
2021/03/30 10:11:36;;;;;;;31.58;16.23;;;;;;;19.77;42.06;103216.63;5048481;28;20034;-83
2021/03/30 10:14:24;;;;;;;34.85;15.77;;;;;;;20.08;39.72;103216.00;5049099;28;20056;-85
2021/03/30 10:16:53;;;;;;;26.45;14.75;;;;;;;20.01;39.26;103205.38;5033884;28;20032;-85
2021/03/30 10:19:21;;;;;;;30.85;16.52;;;;;;;20.13;39.92;103208.72;5033013;28;20120;-80
2021/03/30 10:21:52;;;;;;;26.63;15.27;;;;;;;20.25;39.85;103200.34;5035498;28;20038;-81
2021/03/30 10:24:19;;;;;;;31.63;16.70;;;;;;;20.42;39.71;103196.38;5034968;28;20137;-82
2021/03/30 10:27:08;;;;;;;36.72;19.45;;;;;;;20.67;39.77;103192.16;5033965;28;20068;-81
2021/03/30 10:29:39;;;;;;;35.63;20.75;;;;;;;20.65;40.66;103194.00;5034336;28;20025;-81
2021/03/30 10:32:11;;;;;;;32.67;17.85;;;;;;;20.78;39.83;103191.03;5034946;28;20033;-80
2021/03/30 10:34:38;;;;;;;26.17;15.27;;;;;;;20.89;39.45;103186.22;5034806;28;20034;-81
2021/03/30 10:37:07;;;;;;;23.55;12.10;;;;;;;21.05;37.97;103188.50;5034610;28;20053;-80
2021/03/30 10:39:38;;;;;;;25.58;13.93;;;;;;;21.17;37.92;103188.16;5032832;28;20105;-80
2021/03/30 10:42:09;;;;;;;22.63;13.43;;;;;;;21.19;35.76;103182.75;5034678;28;20120;-80
2021/03/30 10:44:40;;;;;;;25.40;14.23;;;;;;;21.27;36.60;103180.72;5031942;28;20112;-80
2021/03/30 10:47:19;;;;;;;25.52;15.05;;;;;;;21.59;35.93;103177.13;5033833;28;20021;-79
2021/03/30 10:49:49;;;;;;;27.13;14.80;;;;;;;21.63;36.62;103176.13;5033814;28;20033;-83
2021/03/30 10:52:19;;;;;;;28.60;15.80;;;;;;;21.71;37.18;103164.19;5034365;28;20017;-81
2021/03/30 10:54:47;;;;;;;31.52;18.45;;;;;;;21.71;36.94;103177.69;5034094;28;20102;-83
2021/03/30 10:57:16;;;;;;;31.10;17.25;;;;;;;21.73;37.02;103165.94;5032421;28;20041;-82
2021/03/30 10:59:43;;;;;;;30.45;18.15;;;;;;;21.80;36.85;103163.94;5034412;28;20149;-82
2021/03/30 11:02:11;;;;;;;30.15;17.45;;;;;;;21.92;36.65;103158.16;5032821;28;20495;-81
2021/03/30 11:04:38;;;;;;;30.80;16.33;;;;;;;22.05;36.90;103160.47;5030869;28;20511;-81
2021/03/30 11:07:06;;;;;;;33.60;17.75;;;;;;;22.17;36.22;103149.28;5034142;28;20429;-81
2021/03/30 11:09:33;;;;;;;30.20;17.25;;;;;;;22.31;35.83;103148.81;5033593;28;20033;-82
2021/03/30 11:11:59;;;;;;;31.02;16.73;;;;;;;22.44;35.52;103152.03;5032871;28;20091;-81
2021/03/30 11:14:26;;;;;;;28.17;16.50;;;;;;;22.60;35.19;103147.88;5033679;28;20499;-81
2021/03/30 11:16:53;;;;;;;27.40;16.63;;;;;;;22.67;34.98;103143.13;5033745;28;20091;-86
2021/03/30 11:19:20;;;;;;;30.15;16.95;;;;;;;22.79;35.21;103141.81;5033275;28;20048;-82
2021/03/30 11:21:48;;;;;;;30.13;17.52;;;;;;;22.85;34.62;103136.19;5033176;28;20087;-82
2021/03/30 11:24:18;;;;;;;31.13;17.88;;;;;;;22.94;34.08;103132.28;5033269;28;20079;-81
2021/03/30 11:26:48;;;;;;;31.25;16.65;;;;;;;23.06;34.05;103133.66;5033392;28;20034;-83
2021/03/30 11:29:22;;;;;;;31.67;17.80;;;;;;;23.18;33.67;103127.84;5032718;28;20040;-81
2021/03/30 11:32:00;;;;;;;34.20;17.90;;;;;;;23.24;33.76;103126.69;5033401;28;20037;-82
2021/03/30 11:37:34;;;;;;;35.78;15.82;;;;;;;23.51;33.02;103124.78;5060715;28;20446;-81
2021/03/30 11:40:00;;;;;;;27.55;16.95;;;;;;;23.58;32.52;103120.88;5031873;28;20054;-81
2021/03/30 11:42:27;;;;;;;24.45;14.55;;;;;;;23.73;31.90;103119.41;5029781;28;20022;-82
2021/03/30 11:44:53;;;;;;;21.88;13.40;;;;;;;23.77;31.79;103124.72;5028540;28;20042;-83
2021/03/30 11:47:20;;;;;;;24.50;14.15;;;;;;;23.90;31.52;103121.44;5029856;28;20034;-83
2021/03/30 11:49:46;;;;;;;24.63;13.48;;;;;;;23.98;31.43;103118.44;5029658;28;20028;-82
2021/03/30 11:52:13;;;;;;;24.67;13.40;;;;;;;23.99;30.94;103122.03;5029791;28;20030;-81
2021/03/30 11:54:41;;;;;;;23.25;12.98;;;;;;;24.12;30.09;103120.59;5029183;28;20029;-79
2021/03/30 11:57:07;;;;;;;23.80;12.77;;;;;;;24.29;29.82;103122.59;5028894;28;20393;-82
2021/03/30 11:59:33;;;;;;;22.15;13.48;;;;;;;24.38;29.92;103115.91;5025526;28;20095;-81
2021/03/30 12:01:59;;;;;;;28.40;15.02;;;;;;;24.44;29.35;103118.34;5026613;28;20037;-81
2021/03/30 12:04:25;;;;;;;28.23;15.20;;;;;;;24.54;29.50;103117.00;5029426;28;20022;-81
2021/03/30 12:06:54;;;;;;;22.73;14.55;;;;;;;24.52;29.26;103104.47;5029178;28;20033;-82
2021/03/30 12:09:20;;;;;;;26.60;15.10;;;;;;;24.58;28.80;103111.47;5028632;28;20041;-81
2021/03/30 12:11:47;;;;;;;31.42;16.08;;;;;;;24.68;29.98;103104.72;5024923;28;20065;-81
2021/03/30 12:14:14;;;;;;;27.67;16.58;;;;;;;24.75;29.37;103108.94;5029399;28;20026;-81
2021/03/30 12:16:43;;;;;;;28.60;15.25;;;;;;;24.82;28.98;103095.97;5029349;28;20131;-81
2021/03/30 12:19:09;;;;;;;27.50;15.60;;;;;;;24.89;29.13;103083.03;5029090;28;20030;-80
2021/03/30 12:21:36;;;;;;;30.92;15.93;;;;;;;24.96;28.90;103084.50;5029329;28;20074;-81
2021/03/30 12:24:02;;;;;;;29.58;15.48;;;;;;;24.93;29.00;103082.78;5029087;28;20436;-81
2021/03/30 12:26:28;;;;;;;30.27;15.48;;;;;;;25.07;28.13;103076.72;5028180;28;20381;-81